Airport View

Enter AWOS ICAO identifier for current METAR.

ex. KFNL

KEDE 251725Z AUTO 05005KT 3SM RA OVC005 18/18 A3006 RMK AO2 P0010 T01810181

25 Oct 2020 17:24

Frequency: 118.275

Phone: 252-482-0757

Other Area AWOS: KECG - KASJ - KONX - KOCW

TAF KECG 251546Z 2516/2612 04012KT 4SM -RA BR BKN007 OVC011 TEMPO 2516/2518 2SM RA BR SCT007 OVC011 FM252100 04007KT 3SM BR SCT004 OVC007 FM260300 03006KT 2SM -RADZ BR SCT003 OVC005